Time;durP1;ratioP1;P1;durP2;ratioP2;P2;SDS_P1;SDS_P2;PMS_P1;PMS_P2;Temp;Humidity;BMP_temperature;BMP_pressure;BME280_temperature;BME280_humidity;BME280_pressure;Samples;Min_cycle;Max_cycle;Signal;HPM_P1;HPM_P2
2023/10/15 00:00:21;;;;;;;8.35;2.90;;;;;;;8.34;74.95;100789.41;5086394;28;20044;-76
2023/10/15 00:02:49;;;;;;;10.90;3.38;;;;;;;8.30;75.99;100787.66;5075354;28;20044;-78
2023/10/15 00:05:21;;;;;;;6.97;1.63;;;;;;;8.28;100.00;58846.50;5084356;28;20535;-77
2023/10/15 00:07:48;;;;;;;7.53;1.75;;;;;;;-146.61;100.00;58846.50;5086266;28;20043;-78
2023/10/15 00:10:23;;;;;;;14.13;2.70;;;;;;;-146.61;100.00;58846.50;5093369;28;20045;-80
2023/10/15 00:12:52;;;;;;;28.25;3.83;;;;;;;-146.61;100.00;58846.50;5101603;28;20036;-78
2023/10/15 00:15:20;;;;;;;11.38;2.17;;;;;;;-146.61;100.00;58846.50;5105791;28;20122;-78
2023/10/15 00:17:48;;;;;;;9.25;1.90;;;;;;;-146.61;100.00;58846.50;5113961;28;20475;-79
2023/10/15 00:20:19;;;;;;;5.53;1.83;;;;;;;-146.61;100.00;58846.50;5112681;28;20040;-78
2023/10/15 00:22:47;;;;;;;8.85;1.60;;;;;;;-146.61;100.00;58846.50;5115159;28;20443;-78
2023/10/15 00:25:19;;;;;;;12.15;2.28;;;;;;;-146.61;100.00;58846.50;5111297;28;20035;-77
2023/10/15 00:27:54;;;;;;;10.30;1.92;;;;;;;-146.61;100.00;58846.50;5103647;28;20035;-78
2023/10/15 00:30:21;;;;;;;7.63;1.50;;;;;;;-146.61;100.00;58846.50;5104945;28;20541;-80
2023/10/15 00:32:52;;;;;;;7.28;1.67;;;;;;;-146.61;100.00;58846.50;5102293;28;20039;-77
2023/10/15 00:35:19;;;;;;;11.65;2.90;;;;;;;-146.61;100.00;58846.50;5100258;28;20498;-76
2023/10/15 00:37:54;;;;;;;7.65;1.65;;;;;;;-146.61;100.00;58846.50;5102554;28;20051;-78
2023/10/15 00:40:26;;;;;;;7.90;1.88;;;;;;;-146.61;100.00;58846.50;5107202;28;20051;-77
2023/10/15 00:42:53;;;;;;;8.85;2.10;;;;;;;-146.61;100.00;58846.50;5106735;28;20056;-78
2023/10/15 00:45:23;;;;;;;7.70;1.92;;;;;;;-146.61;100.00;58846.50;5113187;27;20058;-77
2023/10/15 00:48:02;;;;;;;11.63;1.80;;;;;;;-146.61;100.00;58846.50;5097033;28;20050;-77
2023/10/15 00:50:36;;;;;;;8.95;2.15;;;;;;;-146.61;100.00;58846.50;5094025;28;20126;-78
2023/10/15 00:53:20;;;;;;;9.52;2.38;;;;;;;-146.61;100.00;58846.50;5098427;28;20738;-77
2023/10/15 00:55:47;;;;;;;15.88;2.42;;;;;;;-146.61;100.00;58846.50;5095498;28;20044;-78
2023/10/15 00:58:21;;;;;;;6.57;1.98;;;;;;;-146.61;100.00;58846.50;5088180;28;20040;-76
2023/10/15 01:00:53;;;;;;;;;;;;;;;-146.61;100.00;58846.50;5093502;28;20039;-78
2023/10/15 01:03:30;;;;;;;18.15;2.63;;;;;;;-146.61;100.00;58846.50;5093877;28;19927;-77
2023/10/15 01:06:04;;;;;;;9.95;1.75;;;;;;;-146.61;100.00;58846.50;5097578;28;20067;-77
2023/10/15 01:08:37;;;;;;;6.50;1.60;;;;;;;-146.61;100.00;58846.50;5097058;28;20047;-81
2023/10/15 01:11:09;;;;;;;4.68;1.55;;;;;;;-146.61;100.00;58846.50;5097927;28;20115;-78
2023/10/15 01:13:37;;;;;;;15.10;1.95;;;;;;;-146.61;100.00;58846.50;5099201;28;20507;-78
2023/10/15 01:16:05;;;;;;;6.43;1.35;;;;;;;-146.61;100.00;58846.50;5094876;28;20088;-77
2023/10/15 01:18:32;;;;;;;8.10;1.40;;;;;;;-146.61;100.00;58846.50;5096534;28;20032;-79
2023/10/15 01:21:01;;;;;;;8.15;1.80;;;;;;;-146.61;100.00;58846.50;5094575;28;20054;-76
2023/10/15 01:23:38;;;;;;;7.07;1.70;;;;;;;-146.61;100.00;58846.50;5097050;28;20666;-77
2023/10/15 01:26:09;;;;;;;6.93;1.33;;;;;;;-146.61;100.00;58846.50;5099798;28;20692;-77
2023/10/15 01:28:37;;;;;;;10.65;2.47;;;;;;;-146.61;100.00;58846.50;5096383;28;20046;-77
2023/10/15 01:31:06;;;;;;;10.63;2.75;;;;;;;-146.61;100.00;58846.50;5097642;28;20044;-76
2023/10/15 01:33:45;;;;;;;12.65;2.40;;;;;;;-146.61;100.00;58846.50;5097289;28;20044;-79
2023/10/15 01:36:17;;;;;;;9.40;1.83;;;;;;;-146.61;100.00;58846.50;5098470;28;20131;-78
2023/10/15 01:38:44;;;;;;;10.75;1.95;;;;;;;-146.61;100.00;58846.50;5097302;28;20044;-76
2023/10/15 01:41:16;;;;;;;10.05;2.08;;;;;;;-146.61;100.00;58846.50;5094171;28;20594;-78
2023/10/15 01:43:46;;;;;;;7.13;1.50;;;;;;;-146.61;100.00;58846.50;5097886;28;20718;-78
2023/10/15 01:46:24;;;;;;;9.48;1.90;;;;;;;-146.61;100.00;58846.50;5089799;28;20059;-76
2023/10/15 01:48:51;;;;;;;5.57;1.90;;;;;;;-146.61;100.00;58846.50;5095391;28;20058;-79
2023/10/15 01:51:17;;;;;;;5.03;1.25;;;;;;;-146.61;100.00;58846.50;5093734;28;20061;-78
2023/10/15 01:53:45;;;;;;;9.73;2.53;;;;;;;-146.61;100.00;58846.50;5096915;28;20066;-79
2023/10/15 01:56:17;;;;;;;6.60;2.35;;;;;;;-146.61;100.00;58846.50;5094908;28;20043;-77
2023/10/15 01:58:44;;;;;;;8.13;1.90;;;;;;;-146.61;100.00;58846.50;5098367;28;20051;-77
2023/10/15 02:01:20;;;;;;;3.67;1.10;;;;;;;-146.61;100.00;58846.50;5094277;28;20389;-76
2023/10/15 02:03:47;;;;;;;13.60;1.92;;;;;;;-146.61;100.00;58846.50;5094035;28;20467;-77
2023/10/15 02:06:16;;;;;;;4.15;1.27;;;;;;;-146.61;100.00;58846.50;5098739;28;20402;-78
2023/10/15 02:08:45;;;;;;;4.53;1.48;;;;;;;-146.61;100.00;58846.50;5095507;28;20102;-77
2023/10/15 02:11:21;;;;;;;22.27;1.88;;;;;;;-146.61;100.00;58846.50;5097177;28;20051;-77
2023/10/15 02:13:48;;;;;;;7.82;1.63;;;;;;;-146.61;100.00;58846.50;5094004;27;20122;-79
2023/10/15 02:16:25;;;;;;;7.18;1.27;;;;;;;-146.61;100.00;58846.50;5095075;27;20036;-79
2023/10/15 02:18:52;;;;;;;9.23;1.45;;;;;;;-146.61;100.00;58846.50;5091620;28;20064;-78
2023/10/15 02:21:19;;;;;;;5.18;1.30;;;;;;;-146.61;100.00;58846.50;5097761;28;20623;-77
2023/10/15 02:23:50;;;;;;;4.88;1.42;;;;;;;-146.61;100.00;58846.50;5093940;28;20063;-77
2023/10/15 02:26:22;;;;;;;9.02;1.45;;;;;;;-146.61;100.00;58846.50;5096537;28;20134;-80
2023/10/15 02:28:53;;;;;;;10.93;1.33;;;;;;;-146.61;100.00;58846.50;5100172;28;20063;-78
2023/10/15 02:31:22;;;;;;;4.28;1.30;;;;;;;-146.61;100.00;58846.50;5097204;28;20051;-79
2023/10/15 02:33:48;;;;;;;4.15;1.15;;;;;;;-146.61;100.00;58846.50;5091077;28;20036;-78
2023/10/15 02:36:16;;;;;;;5.93;1.83;;;;;;;-146.61;100.00;58846.50;5097111;28;20051;-77
2023/10/15 02:38:53;;;;;;;7.32;1.88;;;;;;;-146.61;100.00;58846.50;5095080;28;20043;-77
2023/10/15 02:41:26;;;;;;;5.85;1.35;;;;;;;-146.61;100.00;58846.50;5098092;28;20117;-76
2023/10/15 02:43:55;;;;;;;9.07;1.88;;;;;;;-146.61;100.00;58846.50;5094458;28;20126;-77
2023/10/15 02:46:23;;;;;;;6.38;1.33;;;;;;;-146.61;100.00;58846.50;5095736;28;20041;-78
2023/10/15 02:48:54;;;;;;;6.07;1.40;;;;;;;-146.61;100.00;58846.50;5093920;28;20054;-76
2023/10/15 02:51:27;;;;;;;2.63;0.98;;;;;;;-146.61;100.00;58846.50;5097549;28;20039;-78
2023/10/15 02:53:55;;;;;;;6.10;1.17;;;;;;;-146.61;100.00;58846.50;5083508;28;20051;-75
2023/10/15 02:56:23;;;;;;;5.85;1.52;;;;;;;-146.61;100.00;58846.50;5095714;28;20031;-76
2023/10/15 02:58:54;;;;;;;4.88;1.10;;;;;;;-146.61;100.00;58846.50;5090925;28;20250;-79
2023/10/15 03:01:20;;;;;;;3.53;1.13;;;;;;;-146.61;100.00;58846.50;5096386;28;20124;-77
2023/10/15 03:03:50;;;;;;;5.35;1.10;;;;;;;-146.61;100.00;58846.50;5093124;28;20036;-76
2023/10/15 03:06:24;;;;;;;4.13;0.90;;;;;;;-146.61;100.00;58846.50;5095482;28;20047;-78
2023/10/15 03:08:54;;;;;;;2.70;0.68;;;;;;;-146.61;100.00;58846.50;5096144;28;20054;-77
2023/10/15 03:11:21;;;;;;;2.60;1.05;;;;;;;-146.61;100.00;58846.50;5097323;28;20059;-77
2023/10/15 03:13:53;;;;;;;2.97;0.90;;;;;;;-146.61;100.00;58846.50;5093436;28;20062;-77
2023/10/15 03:16:22;;;;;;;5.35;1.90;;;;;;;-146.61;100.00;58846.50;5093512;28;20063;-76
2023/10/15 03:18:49;;;;;;;2.15;0.70;;;;;;;-146.61;100.00;58846.50;5094650;28;20067;-76
2023/10/15 03:21:20;;;;;;;5.10;1.00;;;;;;;-146.61;100.00;58846.50;5096846;28;20038;-76
2023/10/15 03:23:49;;;;;;;3.63;0.63;;;;;;;-146.61;100.00;58846.50;5091168;28;20036;-79
2023/10/15 03:26:18;;;;;;;3.75;0.90;;;;;;;-146.61;100.00;58846.50;5097919;28;20055;-77
2023/10/15 03:28:51;;;;;;;3.97;0.77;;;;;;;-146.61;100.00;58846.50;5092743;28;20058;-78
2023/10/15 03:31:23;;;;;;;6.25;1.50;;;;;;;-146.61;100.00;58846.50;5096036;28;20040;-78
2023/10/15 03:36:43;;;;;;;2.58;0.50;;;;;;;-146.61;100.00;58846.50;5109636;27;20665;-78
2023/10/15 03:39:15;;;;;;;3.45;1.13;;;;;;;-146.61;100.00;58846.50;5096177;28;20043;-77
2023/10/15 03:41:49;;;;;;;2.13;1.13;;;;;;;-146.61;100.00;58846.50;5091913;28;20063;-77
2023/10/15 03:44:23;;;;;;;5.53;1.10;;;;;;;-146.61;100.00;58846.50;5092072;28;20054;-76
2023/10/15 03:46:49;;;;;;;;;;;;;;;-146.61;100.00;58846.50;5092658;28;20039;-78
2023/10/15 03:49:20;;;;;;;1.27;0.98;;;;;;;-146.61;100.00;58846.50;5090826;28;20295;-76
2023/10/15 03:51:48;;;;;;;2.58;0.38;;;;;;;-146.61;100.00;58846.50;5091975;28;20075;-76
2023/10/15 03:54:15;;;;;;;1.73;0.70;;;;;;;-146.61;100.00;58846.50;5093933;28;20060;-79
2023/10/15 03:56:43;;;;;;;1.98;0.60;;;;;;;-146.61;100.00;58846.50;5091647;28;20126;-79
2023/10/15 03:59:13;;;;;;;2.97;0.60;;;;;;;-146.61;100.00;58846.50;5089913;28;20051;-79
2023/10/15 04:01:48;;;;;;;2.85;0.60;;;;;;;-146.61;100.00;58846.50;5089556;28;20096;-78
2023/10/15 04:04:17;;;;;;;2.67;0.60;;;;;;;-146.61;100.00;58846.50;5094989;28;20109;-77
2023/10/15 04:06:45;;;;;;;1.33;0.47;;;;;;;-146.61;100.00;58846.50;5091361;28;20044;-77
2023/10/15 04:09:14;;;;;;;6.07;0.50;;;;;;;-146.61;100.00;58846.50;5094447;28;20050;-80
2023/10/15 04:11:44;;;;;;;3.13;0.47;;;;;;;-146.61;100.00;58846.50;5090010;28;20036;-81
2023/10/15 04:14:17;;;;;;;3.67;0.93;;;;;;;-146.61;100.00;58846.50;5096142;28;20150;-78
2023/10/15 04:16:45;;;;;;;4.15;0.85;;;;;;;-146.61;100.00;58846.50;5093272;28;20078;-77
2023/10/15 04:19:16;;;;;;;1.83;0.93;;;;;;;-146.61;100.00;58846.50;5095130;28;20051;-79
2023/10/15 04:21:43;;;;;;;2.28;0.30;;;;;;;-146.61;100.00;58846.50;5094473;28;20047;-80
2023/10/15 04:24:10;;;;;;;0.20;0.20;;;;;;;-146.61;100.00;58846.50;5095392;28;20480;-76
2023/10/15 04:26:40;;;;;;;5.00;0.60;;;;;;;-146.61;100.00;58846.50;5088200;28;20039;-79
2023/10/15 04:29:16;;;;;;;1.55;0.52;;;;;;;-146.61;100.00;58846.50;5092487;28;20040;-77
2023/10/15 04:31:56;;;;;;;1.27;0.45;;;;;;;-146.61;100.00;58846.50;5094047;28;20040;-78
2023/10/15 04:34:25;;;;;;;2.25;0.43;;;;;;;-146.61;100.00;58846.50;5091926;28;20036;-80
2023/10/15 04:36:54;;;;;;;2.72;0.30;;;;;;;-146.61;100.00;58846.50;5089608;28;20051;-77
2023/10/15 04:39:22;;;;;;;1.88;0.40;;;;;;;-146.61;100.00;58846.50;5096063;28;20072;-79
2023/10/15 04:41:50;;;;;;;1.60;0.35;;;;;;;-146.61;100.00;58846.50;5095163;28;20056;-76
2023/10/15 04:44:25;;;;;;;1.85;0.45;;;;;;;-146.61;100.00;58846.50;5091718;28;20035;-77
2023/10/15 04:46:54;;;;;;;3.28;0.47;;;;;;;-146.61;100.00;58846.50;5094944;28;20044;-81
2023/10/15 04:49:23;;;;;;;2.38;0.35;;;;;;;-146.61;100.00;58846.50;5093781;28;20135;-78
2023/10/15 04:51:52;;;;;;;2.45;0.30;;;;;;;-146.61;100.00;58846.50;5094299;28;20058;-77
2023/10/15 04:54:19;;;;;;;3.03;0.50;;;;;;;-146.61;100.00;58846.50;5091428;28;20049;-79
2023/10/15 04:56:46;;;;;;;4.68;1.23;;;;;;;-146.61;100.00;58846.50;5093136;28;20044;-75
2023/10/15 04:59:13;;;;;;;1.17;0.20;;;;;;;-146.61;100.00;58846.50;5096218;28;20050;-78
2023/10/15 05:01:39;;;;;;;1.50;0.47;;;;;;;-146.61;100.00;58846.50;5092387;28;20046;-78
2023/10/15 05:04:06;;;;;;;3.58;0.47;;;;;;;-146.61;100.00;58846.50;5094937;28;20160;-79
2023/10/15 05:06:32;;;;;;;1.08;0.40;;;;;;;-146.61;100.00;58846.50;5091764;28;20040;-78
2023/10/15 05:08:59;;;;;;;1.63;0.40;;;;;;;-146.61;100.00;58846.50;5097724;28;20035;-76
2023/10/15 05:11:25;;;;;;;1.83;0.40;;;;;;;-146.61;100.00;58846.50;5097503;28;20577;-77
2023/10/15 05:13:52;;;;;;;4.82;0.63;;;;;;;-146.61;100.00;58846.50;5097821;28;20167;-78
2023/10/15 05:16:19;;;;;;;3.30;0.20;;;;;;;-146.61;100.00;58846.50;5099102;28;20040;-77
2023/10/15 05:18:47;;;;;;;3.50;0.30;;;;;;;-146.61;100.00;58846.50;5098122;28;20097;-78
2023/10/15 05:21:13;;;;;;;1.08;0.60;;;;;;;-146.61;100.00;58846.50;5097060;28;20040;-76
2023/10/15 05:23:40;;;;;;;2.78;0.20;;;;;;;-146.61;100.00;58846.50;5092295;28;20419;-77
2023/10/15 05:26:06;;;;;;;2.00;0.50;;;;;;;-146.61;100.00;58846.50;5089774;28;20777;-76
2023/10/15 05:28:33;;;;;;;3.95;0.25;;;;;;;-146.61;100.00;58846.50;5100404;28;20069;-78
2023/10/15 05:31:00;;;;;;;2.03;0.50;;;;;;;-146.61;100.00;58846.50;5097827;28;20040;-76
2023/10/15 05:33:28;;;;;;;1.48;0.40;;;;;;;-146.61;100.00;58846.50;5098702;28;20040;-78
2023/10/15 05:35:56;;;;;;;1.40;0.20;;;;;;;-146.61;100.00;58846.50;5092252;28;20039;-80
2023/10/15 05:38:24;;;;;;;2.95;0.85;;;;;;;-146.61;100.00;58846.50;5099652;28;20043;-78
2023/10/15 05:40:58;;;;;;;2.72;0.73;;;;;;;-146.61;100.00;58846.50;5097432;28;20040;-76
2023/10/15 05:43:24;;;;;;;1.75;0.30;;;;;;;-146.61;100.00;58846.50;5094594;28;20094;-78
2023/10/15 05:45:51;;;;;;;0.73;0.40;;;;;;;-146.61;100.00;58846.50;5094608;28;20038;-76
2023/10/15 05:48:18;;;;;;;1.60;0.43;;;;;;;-146.61;100.00;58846.50;5088949;28;20056;-77
2023/10/15 05:50:49;;;;;;;1.30;0.32;;;;;;;-146.61;100.00;58846.50;5092278;28;20068;-79
2023/10/15 05:53:17;;;;;;;2.22;0.55;;;;;;;-146.61;100.00;58846.50;5097952;28;20039;-79
2023/10/15 05:55:45;;;;;;;0.28;0.28;;;;;;;-146.61;100.00;58846.50;5096314;28;20055;-80
2023/10/15 05:58:12;;;;;;;0.13;0.10;;;;;;;-146.61;100.00;58846.50;5092914;28;20054;-78
2023/10/15 06:00:40;;;;;;;3.72;0.35;;;;;;;-146.61;100.00;58846.50;5097262;28;20041;-79
2023/10/15 06:03:08;;;;;;;4.07;1.85;;;;;;;-146.61;100.00;58846.50;5096189;28;20145;-79
2023/10/15 06:05:36;;;;;;;2.88;0.30;;;;;;;-146.61;100.00;58846.50;5100226;28;20043;-78
2023/10/15 06:08:04;;;;;;;0.22;0.17;;;;;;;-146.61;100.00;58846.50;5094464;27;20063;-77
2023/10/15 06:10:32;;;;;;;0.40;0.15;;;;;;;-146.61;100.00;58846.50;5094493;28;20057;-76
2023/10/15 06:12:59;;;;;;;0.40;0.40;;;;;;;-146.61;100.00;58846.50;5093436;28;20040;-79
2023/10/15 06:15:26;;;;;;;3.95;0.30;;;;;;;-146.61;100.00;58846.50;5089729;28;20052;-77
2023/10/15 06:17:53;;;;;;;4.15;0.40;;;;;;;-146.61;100.00;58846.50;5093718;28;20057;-76
2023/10/15 06:20:20;;;;;;;1.27;0.20;;;;;;;-146.61;100.00;58846.50;5096115;28;20064;-77
2023/10/15 06:22:49;;;;;;;2.33;0.25;;;;;;;-146.61;100.00;58846.50;5095635;28;20032;-77
2023/10/15 06:25:17;;;;;;;0.60;0.40;;;;;;;-146.61;100.00;58846.50;5092028;28;20779;-77
2023/10/15 06:27:44;;;;;;;1.70;0.30;;;;;;;-146.61;100.00;58846.50;5094458;28;20047;-78
2023/10/15 06:30:16;;;;;;;2.28;0.47;;;;;;;-146.61;100.00;58846.50;5093115;28;20043;-79
2023/10/15 06:32:53;;;;;;;0.57;0.30;;;;;;;-146.61;100.00;58846.50;5095320;28;20047;-76
2023/10/15 06:35:23;;;;;;;1.25;0.28;;;;;;;-146.61;100.00;58846.50;5095351;27;20036;-76
2023/10/15 06:37:55;;;;;;;1.85;0.35;;;;;;;-146.61;100.00;58846.50;5092649;28;20050;-77
2023/10/15 06:40:24;;;;;;;1.92;0.28;;;;;;;-146.61;100.00;58846.50;5096486;28;20450;-77
2023/10/15 06:42:52;;;;;;;0.32;0.22;;;;;;;-146.61;100.00;58846.50;5095638;28;20055;-81
2023/10/15 06:45:19;;;;;;;0.93;0.30;;;;;;;-146.61;100.00;58846.50;5091046;28;20409;-77
2023/10/15 06:47:47;;;;;;;5.30;0.30;;;;;;;-146.61;100.00;58846.50;5090957;28;20040;-77
2023/10/15 06:50:14;;;;;;;2.25;0.35;;;;;;;-146.61;100.00;58846.50;5097058;28;20044;-80
2023/10/15 06:52:42;;;;;;;1.98;0.45;;;;;;;-146.61;100.00;58846.50;5097303;28;20039;-77
2023/10/15 06:55:10;;;;;;;2.70;0.82;;;;;;;-146.61;100.00;58846.50;5096460;28;20055;-77
2023/10/15 06:57:39;;;;;;;1.17;0.32;;;;;;;-146.61;100.00;58846.50;5096574;28;20128;-79
2023/10/15 07:00:12;;;;;;;1.33;0.20;;;;;;;-146.61;100.00;58846.50;5095057;28;20041;-80
2023/10/15 07:02:39;;;;;;;1.58;0.38;;;;;;;-146.61;100.00;58846.50;5096489;28;20039;-80
2023/10/15 07:05:07;;;;;;;1.38;0.35;;;;;;;-146.61;100.00;58846.50;5090427;28;20055;-79
2023/10/15 07:07:34;;;;;;;0.70;0.28;;;;;;;-146.61;100.00;58846.50;5095958;28;20043;-78
2023/10/15 07:10:01;;;;;;;1.27;0.28;;;;;;;-146.61;100.00;58846.50;5095999;28;20044;-78
2023/10/15 07:12:29;;;;;;;1.25;0.40;;;;;;;-146.61;100.00;58846.50;5095240;28;20044;-80
2023/10/15 07:14:55;;;;;;;1.05;0.30;;;;;;;-146.61;100.00;58846.50;5095055;28;20471;-77
2023/10/15 07:17:21;;;;;;;0.70;0.20;;;;;;;-146.61;100.00;58846.50;5095723;28;20039;-76
2023/10/15 07:19:48;;;;;;;1.23;0.45;;;;;;;-146.61;100.00;58846.50;5094793;28;20039;-80
2023/10/15 07:22:14;;;;;;;2.28;0.50;;;;;;;-146.61;100.00;58846.50;5097197;28;20073;-82
2023/10/15 07:24:41;;;;;;;2.53;0.38;;;;;;;-146.61;100.00;58846.50;5092381;28;20035;-78
2023/10/15 07:27:07;;;;;;;1.35;1.08;;;;;;;-146.61;100.00;58846.50;5093440;28;20043;-76
2023/10/15 07:29:33;;;;;;;2.55;0.40;;;;;;;-146.61;100.00;58846.50;5092429;28;20044;-79
2023/10/15 07:32:00;;;;;;;0.70;0.28;;;;;;;-146.61;100.00;58846.50;5092073;28;20051;-77
2023/10/15 07:34:27;;;;;;;1.48;0.47;;;;;;;-146.61;100.00;58846.50;5096741;28;20089;-79
2023/10/15 07:36:55;;;;;;;1.38;0.57;;;;;;;-146.61;100.00;58846.50;5091261;28;20276;-78
2023/10/15 07:39:26;;;;;;;3.72;0.45;;;;;;;-146.61;100.00;58846.50;5090535;28;20467;-78
2023/10/15 07:41:53;;;;;;;1.75;0.30;;;;;;;-146.61;100.00;58846.50;5088994;28;20589;-77
2023/10/15 07:44:21;;;;;;;2.90;0.60;;;;;;;-146.61;100.00;58846.50;5093899;28;20044;-76
2023/10/15 07:46:52;;;;;;;1.75;0.50;;;;;;;-146.61;100.00;58846.50;5094598;28;20044;-76
2023/10/15 07:49:19;;;;;;;1.58;0.30;;;;;;;-146.61;100.00;58846.50;5093289;28;20039;-77
2023/10/15 07:51:47;;;;;;;2.17;0.55;;;;;;;-146.61;100.00;58846.50;5095144;28;20044;-77
2023/10/15 07:54:14;;;;;;;1.20;0.30;;;;;;;-146.61;100.00;58846.50;5088385;28;20118;-76
2023/10/15 07:56:41;;;;;;;1.55;0.50;;;;;;;-146.61;100.00;58846.50;5091483;28;20034;-77
2023/10/15 07:59:08;;;;;;;0.68;0.22;;;;;;;-146.61;100.00;58846.50;5096104;28;20051;-80
2023/10/15 08:01:37;;;;;;;0.77;0.50;;;;;;;-146.61;100.00;58846.50;5093515;28;20039;-79
2023/10/15 08:04:06;;;;;;;1.35;0.50;;;;;;;-146.61;100.00;58846.50;5091122;28;20058;-76
2023/10/15 08:06:34;;;;;;;1.60;0.30;;;;;;;-146.61;100.00;58846.50;5092877;28;20044;-78
2023/10/15 08:09:01;;;;;;;1.05;0.28;;;;;;;-146.61;100.00;58846.50;5089783;28;20058;-79
2023/10/15 08:11:27;;;;;;;2.15;0.50;;;;;;;-146.61;100.00;58846.50;5091867;28;20216;-78
2023/10/15 08:13:54;;;;;;;1.17;1.10;;;;;;;-146.61;100.00;58846.50;5104811;28;20047;-79
2023/10/15 08:16:20;;;;;;;1.00;0.52;;;;;;;-146.61;100.00;58846.50;5091308;28;20058;-78
2023/10/15 08:18:47;;;;;;;2.67;0.40;;;;;;;-146.61;100.00;58846.50;5093787;28;20059;-78
2023/10/15 08:21:14;;;;;;;2.35;0.35;;;;;;;-146.61;100.00;58846.50;5090568;28;20046;-78
2023/10/15 08:23:40;;;;;;;0.90;0.90;;;;;;;-146.61;100.00;58846.50;5097268;28;20035;-77
2023/10/15 08:26:07;;;;;;;1.17;0.50;;;;;;;-146.61;100.00;58846.50;5092405;28;20038;-77
2023/10/15 08:28:33;;;;;;;0.73;0.50;;;;;;;-146.61;100.00;58846.50;5092381;28;20039;-78
2023/10/15 08:31:01;;;;;;;0.98;0.47;;;;;;;-146.61;100.00;58846.50;5093180;28;20043;-80
2023/10/15 08:33:27;;;;;;;3.63;1.25;;;;;;;-146.61;100.00;58846.50;5105659;28;20046;-78
2023/10/15 08:35:54;;;;;;;3.50;0.95;;;;;;;-146.61;100.00;58846.50;5085875;28;20040;-78
2023/10/15 08:38:20;;;;;;;2.33;0.60;;;;;;;-146.61;100.00;58846.50;5100626;28;20039;-79
2023/10/15 08:40:49;;;;;;;1.20;0.32;;;;;;;-146.61;100.00;58846.50;5092826;28;20050;-77
2023/10/15 08:43:18;;;;;;;1.73;0.45;;;;;;;-146.61;100.00;58846.50;5097730;28;20051;-77
2023/10/15 08:45:45;;;;;;;2.45;0.70;;;;;;;-146.61;100.00;58846.50;5097053;28;20043;-81
2023/10/15 08:48:14;;;;;;;5.03;0.45;;;;;;;-146.61;100.00;58846.50;5093815;28;20058;-78
2023/10/15 08:50:41;;;;;;;3.20;0.43;;;;;;;-146.61;100.00;58846.50;5097075;28;20441;-79
2023/10/15 08:53:09;;;;;;;2.25;0.70;;;;;;;-146.61;100.00;58846.50;5095848;28;20066;-77
2023/10/15 08:55:39;;;;;;;1.40;0.52;;;;;;;-146.61;100.00;58846.50;5093449;28;20081;-80
2023/10/15 08:58:09;;;;;;;1.25;0.15;;;;;;;-146.61;100.00;58846.50;5093760;28;20046;-79
2023/10/15 09:00:36;;;;;;;2.47;1.05;;;;;;;-146.61;100.00;58846.50;5099651;28;20565;-78
2023/10/15 09:03:03;;;;;;;2.45;0.20;;;;;;;-146.61;100.00;58846.50;5092932;28;20071;-79
2023/10/15 09:05:33;;;;;;;1.20;0.30;;;;;;;-146.61;100.00;58846.50;5095997;28;20051;-78
2023/10/15 09:08:06;;;;;;;0.70;0.38;;;;;;;-146.61;100.00;58846.50;5092488;28;20117;-78
2023/10/15 09:10:33;;;;;;;2.45;0.30;;;;;;;-146.61;100.00;58846.50;5094733;28;20050;-79
2023/10/15 09:12:59;;;;;;;0.77;0.30;;;;;;;-146.61;100.00;58846.50;5098127;28;20035;-77
2023/10/15 09:15:29;;;;;;;0.50;0.40;;;;;;;-146.61;100.00;58846.50;5095339;28;20040;-78
2023/10/15 09:17:59;;;;;;;3.30;0.75;;;;;;;-146.61;100.00;58846.50;5095481;28;20483;-79
2023/10/15 09:20:32;;;;;;;3.00;0.60;;;;;;;-146.61;100.00;58846.50;5110470;27;20043;-76
2023/10/15 09:23:01;;;;;;;1.63;0.57;;;;;;;-146.61;100.00;58846.50;5108613;28;20039;-79
2023/10/15 09:25:29;;;;;;;2.28;0.35;;;;;;;-146.61;100.00;58846.50;5103409;28;20040;-78
2023/10/15 09:27:59;;;;;;;4.18;0.63;;;;;;;-146.61;100.00;58846.50;5102294;28;20109;-77
2023/10/15 09:30:27;;;;;;;0.60;0.22;;;;;;;-146.61;100.00;58846.50;5097582;28;20100;-80
2023/10/15 09:32:56;;;;;;;4.63;1.40;;;;;;;-146.61;100.00;58846.50;5102904;28;20035;-79
2023/10/15 09:35:25;;;;;;;2.60;0.22;;;;;;;-146.61;100.00;58846.50;5100413;28;20515;-76
2023/10/15 09:37:53;;;;;;;1.15;0.70;;;;;;;-146.61;100.00;58846.50;5098862;28;20050;-76
2023/10/15 09:40:24;;;;;;;1.08;0.45;;;;;;;-146.61;100.00;58846.50;5101633;28;20573;-77
2023/10/15 09:42:53;;;;;;;1.17;0.40;;;;;;;-146.61;100.00;58846.50;5097105;28;20063;-78
2023/10/15 09:45:23;;;;;;;2.63;0.52;;;;;;;-146.61;100.00;58846.50;5100528;28;20483;-81
2023/10/15 09:47:55;;;;;;;1.52;0.38;;;;;;;-146.61;100.00;58846.50;5092154;28;20044;-78
2023/10/15 09:50:28;;;;;;;0.32;0.17;;;;;;;-146.61;100.00;58846.50;5099272;28;20138;-77
2023/10/15 09:53:09;;;;;;;;;;;;;;;-146.61;100.00;58846.50;5097072;28;20047;-78
2023/10/15 09:55:36;;;;;;;1.23;0.40;;;;;;;-146.61;100.00;58846.50;5094012;28;20387;-78
2023/10/15 09:58:05;;;;;;;1.38;0.30;;;;;;;-146.61;100.00;58846.50;5091781;28;20040;-78
2023/10/15 10:00:47;;;;;;;2.00;0.60;;;;;;;-146.61;100.00;58846.50;5092917;28;20078;-78
2023/10/15 10:03:47;;;;;;;0.20;0.20;;;;;;;-146.61;100.00;58846.50;5084656;28;20543;-78
2023/10/15 10:06:32;;;;;;;1.77;0.50;;;;;;;-146.61;100.00;58846.50;5102918;27;20479;-76
2023/10/15 10:09:24;;;;;;;0.45;0.25;;;;;;;-146.61;100.00;58846.50;5095520;28;20040;-77
2023/10/15 10:12:13;;;;;;;1.92;0.70;;;;;;;-146.61;100.00;58846.50;5094542;28;20567;-80
2023/10/15 10:15:16;;;;;;;1.67;0.30;;;;;;;-146.61;100.00;58846.50;5093176;28;20135;-77
2023/10/15 10:17:43;;;;;;;2.05;0.60;;;;;;;-146.61;100.00;58846.50;5088106;28;20121;-79
2023/10/15 10:20:14;;;;;;;1.95;0.40;;;;;;;-146.61;100.00;58846.50;5097430;28;20048;-80
2023/10/15 10:22:41;;;;;;;2.55;0.35;;;;;;;-146.61;100.00;58846.50;5092431;28;20469;-80
2023/10/15 10:25:11;;;;;;;0.68;0.28;;;;;;;-146.61;100.00;58846.50;5091549;28;20219;-77
2023/10/15 10:27:45;;;;;;;1.48;0.57;;;;;;;-146.61;100.00;58846.50;5095332;28;20142;-76
2023/10/15 10:30:28;;;;;;;0.63;0.28;;;;;;;-146.61;100.00;58846.50;5094247;28;20502;-79
2023/10/15 10:33:04;;;;;;;1.10;0.50;;;;;;;-146.61;100.00;58846.50;5093381;28;20162;-79
2023/10/15 10:35:46;;;;;;;2.67;0.47;;;;;;;-146.61;100.00;58846.50;5087442;28;20044;-78
2023/10/15 10:38:20;;;;;;;0.57;0.40;;;;;;;-146.61;100.00;58846.50;5087769;28;20048;-77
2023/10/15 10:40:48;;;;;;;2.88;1.10;;;;;;;-146.61;100.00;58846.50;5094473;28;20044;-77
2023/10/15 10:43:24;;;;;;;1.75;0.65;;;;;;;-146.61;100.00;58846.50;5093356;28;20056;-78
2023/10/15 10:45:52;;;;;;;2.03;0.25;;;;;;;-146.61;100.00;58846.50;5093942;28;20673;-78
2023/10/15 10:48:27;;;;;;;0.88;0.30;;;;;;;-146.61;100.00;58846.50;5089890;28;20887;-77
2023/10/15 10:51:12;;;;;;;2.35;1.00;;;;;;;-146.61;100.00;58846.50;5094357;28;20054;-78
2023/10/15 10:53:39;;;;;;;3.90;0.65;;;;;;;-146.61;100.00;58846.50;5091756;28;20495;-78
2023/10/15 10:56:07;;;;;;;3.03;0.52;;;;;;;-146.61;100.00;58846.50;5092150;28;20131;-76
2023/10/15 10:58:37;;;;;;;2.50;0.57;;;;;;;-146.61;100.00;58846.50;5094278;28;20052;-78
2023/10/15 11:01:06;;;;;;;2.97;0.50;;;;;;;-146.61;100.00;58846.50;5089314;28;20050;-77
2023/10/15 11:03:33;;;;;;;1.75;0.40;;;;;;;-146.61;100.00;58846.50;5094743;28;20126;-77
2023/10/15 11:06:00;;;;;;;0.75;0.38;;;;;;;-146.61;100.00;58846.50;5094528;28;20063;-78
2023/10/15 11:08:26;;;;;;;4.10;0.45;;;;;;;-146.61;100.00;58846.50;5097087;28;20080;-77
2023/10/15 11:10:53;;;;;;;2.38;1.05;;;;;;;-146.61;100.00;58846.50;5094391;28;20490;-76
2023/10/15 11:13:20;;;;;;;1.38;0.60;;;;;;;-146.61;100.00;58846.50;5096937;28;20060;-76
2023/10/15 11:15:50;;;;;;;1.35;0.40;;;;;;;-146.61;100.00;58846.50;5096565;28;20570;-78
2023/10/15 11:18:24;;;;;;;10.68;0.50;;;;;;;-146.61;100.00;58846.50;5091144;28;20643;-77
2023/10/15 11:20:52;;;;;;;0.52;0.32;;;;;;;-146.61;100.00;58846.50;5095188;28;20141;-78
2023/10/15 11:23:26;;;;;;;3.92;0.30;;;;;;;-146.61;100.00;58846.50;5091478;28;20070;-78